<?xml version="1.0" encoding="UTF-8" standalone="no" ?>
<gpx xmlns="http://www.topografix.com/GPX/1/1" xmlns:xsi="http://www.w3.org/2001/XMLSchema-instance" xsi:schemaLocation="http://www.topografix.com/GPX/1/1 http://www.topografix.com/GPX/1/1/gpx.xsd" version="1.1" creator="VisuGPX - https://www.visugpx.com">
  <metadata>
    <name>Petit Veymont en A/R par le pas du Fouillet (Vercors)</name>
    <desc><![CDATA[Au départ du [b]parking du Parc de Loisirs.[/b]
Suivre le sentier balisé j[b]aune/vert[/b] qui mène au [b]Pas des Bachassons[/b]. Vers 1750m, un kairn indique  [b]"le Pas du Fouillet"[/b] à droite. Après quelques lacets, le sentier longe les falaises à main gauche avec un beau câble sur toute la partie technique.
Longer les crêtes jusqu'au bastion sommital du [b]Petit Veymont[/b] (fin délicate - R4). Bastion que l'on contournera par l'Ouest! avant d'atteindre le sommet.
A faire sans neige.
.
Photos ici: [url]https://goo.gl/photos/6zfWWnV7wsHjfkjG6[/url]
.
Autres sorties dans le Vercors --> [url]https://www.visugpx.com/membres/87/vercors/[/url]]]></desc>
  </metadata>
  <wpt lat="44.86398" lon="5.53075">
    <ele>2121</ele>
    <name><![CDATA[]]></name>
    <desc><![CDATA[]]></desc>
    <type><![CDATA[Point de navigation]]></type>
  </wpt>
  <wpt lat="44.85105" lon="5.52398">
    <ele>1765.32</ele>
    <name><![CDATA[]]></name>
    <desc><![CDATA[]]></desc>
    <type><![CDATA[Point de navigation]]></type>
  </wpt>
  <trk>
    <name><![CDATA[2017-04-21 08:09]]></name>
    <desc><![CDATA[<h1>OruxMaps</h1><br /><hr align="center" width="480" style="height: 2px; width: 517px"/><h2>Nom: 2017-04-21 08:09</h2><br /><p>Temps de départ: 04/21/2017 08:07</p><p>Temps d'arrivée: 04/21/2017 12:42</p><p>Distance: 10,9km (04:34)</p><p>Temps déplacement: 03:11</p><p>Vitesse moyenne: 2,4km/h</p><p>Vitesse moyenne: 3,4km/h</p><p>Vitess Max.: 7,4km/h</p><p>Altitude minimale: 1092m</p><p>Altitude maximale: 2120m</p><p>Vitesse d'élévation: 488,6m/h</p><p>Vitesse de descente: -637,4m/h</p><p>Gain Altitude: 1233m</p><p>Perte Altitude: -1239m</p><p>Temps d'élévation: 02:31</p><p>Temps de descente: 01:56</p><hr align="center" width="480" style="height: 2px; width: 517px"/>]]></desc>
    <trkseg>
      <trkpt lat="44.85804" lon="5.55716">
        <ele>1135.05</ele>
        <time>2017-04-21T06:07:43Z</time>
      </trkpt>
      <trkpt lat="44.85796" lon="5.55692">
        <ele>1146.48</ele>
        <time>2017-04-21T06:08:03Z</time>
      </trkpt>
      <trkpt lat="44.85789" lon="5.55665">
        <ele>1142.71</ele>
        <time>2017-04-21T06:08:25Z</time>
      </trkpt>
      <trkpt lat="44.85777" lon="5.55647">
        <ele>1137</ele>
        <time>2017-04-21T06:08:45Z</time>
      </trkpt>
      <trkpt lat="44.85766" lon="5.55626">
        <ele>1142.34</ele>
        <time>2017-04-21T06:09:05Z</time>
      </trkpt>
      <trkpt lat="44.85756" lon="5.55601">
        <ele>1147.61</ele>
        <time>2017-04-21T06:09:51Z</time>
      </trkpt>
      <trkpt lat="44.85752" lon="5.55574">
        <ele>1156.5</ele>
        <time>2017-04-21T06:10:09Z</time>
      </trkpt>
      <trkpt lat="44.85744" lon="5.5555">
        <ele>1155.08</ele>
        <time>2017-04-21T06:10:27Z</time>
      </trkpt>
      <trkpt lat="44.85741" lon="5.55523">
        <ele>1160.12</ele>
        <time>2017-04-21T06:10:45Z</time>
      </trkpt>
      <trkpt lat="44.85737" lon="5.55498">
        <ele>1156.91</ele>
        <time>2017-04-21T06:11:07Z</time>
      </trkpt>
      <trkpt lat="44.85733" lon="5.55473">
        <ele>1155.2</ele>
        <time>2017-04-21T06:11:35Z</time>
      </trkpt>
      <trkpt lat="44.85724" lon="5.5545">
        <ele>1159.39</ele>
        <time>2017-04-21T06:12:13Z</time>
      </trkpt>
      <trkpt lat="44.85707" lon="5.55435">
        <ele>1166.16</ele>
        <time>2017-04-21T06:12:27Z</time>
      </trkpt>
      <trkpt lat="44.8569" lon="5.55422">
        <ele>1165.15</ele>
        <time>2017-04-21T06:12:45Z</time>
      </trkpt>
      <trkpt lat="44.85678" lon="5.55399">
        <ele>1164.65</ele>
        <time>2017-04-21T06:13:09Z</time>
      </trkpt>
      <trkpt lat="44.85666" lon="5.55381">
        <ele>1160.75</ele>
        <time>2017-04-21T06:13:29Z</time>
      </trkpt>
      <trkpt lat="44.85657" lon="5.55358">
        <ele>1166.38</ele>
        <time>2017-04-21T06:13:47Z</time>
      </trkpt>
      <trkpt lat="44.85644" lon="5.55339">
        <ele>1169.5</ele>
        <time>2017-04-21T06:14:09Z</time>
      </trkpt>
      <trkpt lat="44.85634" lon="5.55316">
        <ele>1168.05</ele>
        <time>2017-04-21T06:14:27Z</time>
      </trkpt>
      <trkpt lat="44.85628" lon="5.5529">
        <ele>1173.8</ele>
        <time>2017-04-21T06:14:43Z</time>
      </trkpt>
      <trkpt lat="44.85621" lon="5.55263">
        <ele>1178.29</ele>
        <time>2017-04-21T06:15:01Z</time>
      </trkpt>
      <trkpt lat="44.85613" lon="5.55238">
        <ele>1173.65</ele>
        <time>2017-04-21T06:15:21Z</time>
      </trkpt>
      <trkpt lat="44.85608" lon="5.55213">
        <ele>1172.5</ele>
        <time>2017-04-21T06:15:41Z</time>
      </trkpt>
      <trkpt lat="44.85613" lon="5.55188">
        <ele>1167.2</ele>
        <time>2017-04-21T06:16:05Z</time>
      </trkpt>
      <trkpt lat="44.85611" lon="5.55161">
        <ele>1159.43</ele>
        <time>2017-04-21T06:16:25Z</time>
      </trkpt>
      <trkpt lat="44.85614" lon="5.55134">
        <ele>1164.19</ele>
        <time>2017-04-21T06:16:47Z</time>
      </trkpt>
      <trkpt lat="44.85616" lon="5.55106">
        <ele>1161.94</ele>
        <time>2017-04-21T06:17:07Z</time>
      </trkpt>
      <trkpt lat="44.85619" lon="5.5508">
        <ele>1147.16</ele>
        <time>2017-04-21T06:17:31Z</time>
      </trkpt>
      <trkpt lat="44.8562" lon="5.55054">
        <ele>1124.36</ele>
        <time>2017-04-21T06:17:57Z</time>
      </trkpt>
      <trkpt lat="44.85621" lon="5.55029">
        <ele>1107.25</ele>
        <time>2017-04-21T06:18:23Z</time>
      </trkpt>
      <trkpt lat="44.85621" lon="5.55003">
        <ele>1123.42</ele>
        <time>2017-04-21T06:18:39Z</time>
      </trkpt>
      <trkpt lat="44.85621" lon="5.54977">
        <ele>1098.85</ele>
        <time>2017-04-21T06:19:01Z</time>
      </trkpt>
      <trkpt lat="44.85615" lon="5.54952">
        <ele>1092.72</ele>
        <time>2017-04-21T06:19:15Z</time>
      </trkpt>
      <trkpt lat="44.85606" lon="5.54929">
        <ele>1102.26</ele>
        <time>2017-04-21T06:19:33Z</time>
      </trkpt>
      <trkpt lat="44.85605" lon="5.54903">
        <ele>1105.81</ele>
        <time>2017-04-21T06:19:47Z</time>
      </trkpt>
      <trkpt lat="44.85605" lon="5.54877">
        <ele>1110.77</ele>
        <time>2017-04-21T06:20:01Z</time>
      </trkpt>
      <trkpt lat="44.85598" lon="5.54851">
        <ele>1118.45</ele>
        <time>2017-04-21T06:20:15Z</time>
      </trkpt>
      <trkpt lat="44.85592" lon="5.54826">
        <ele>1129.39</ele>
        <time>2017-04-21T06:20:31Z</time>
      </trkpt>
      <trkpt lat="44.85589" lon="5.548">
        <ele>1136.45</ele>
        <time>2017-04-21T06:20:45Z</time>
      </trkpt>
      <trkpt lat="44.85587" lon="5.54773">
        <ele>1138.2</ele>
        <time>2017-04-21T06:21:01Z</time>
      </trkpt>
      <trkpt lat="44.85572" lon="5.54753">
        <ele>1132.16</ele>
        <time>2017-04-21T06:21:17Z</time>
      </trkpt>
      <trkpt lat="44.85564" lon="5.5473">
        <ele>1127.34</ele>
        <time>2017-04-21T06:21:37Z</time>
      </trkpt>
      <trkpt lat="44.85565" lon="5.54704">
        <ele>1121.42</ele>
        <time>2017-04-21T06:22:03Z</time>
      </trkpt>
      <trkpt lat="44.85558" lon="5.5468">
        <ele>1122.24</ele>
        <time>2017-04-21T06:22:21Z</time>
      </trkpt>
      <trkpt lat="44.85548" lon="5.54657">
        <ele>1120.02</ele>
        <time>2017-04-21T06:22:49Z</time>
      </trkpt>
      <trkpt lat="44.85546" lon="5.5463">
        <ele>1121.69</ele>
        <time>2017-04-21T06:23:11Z</time>
      </trkpt>
      <trkpt lat="44.85541" lon="5.54606">
        <ele>1123.42</ele>
        <time>2017-04-21T06:23:29Z</time>
      </trkpt>
      <trkpt lat="44.85542" lon="5.5458">
        <ele>1128.66</ele>
        <time>2017-04-21T06:23:51Z</time>
      </trkpt>
      <trkpt lat="44.8554" lon="5.54553">
        <ele>1137.21</ele>
        <time>2017-04-21T06:24:13Z</time>
      </trkpt>
      <trkpt lat="44.8554" lon="5.54526">
        <ele>1135.45</ele>
        <time>2017-04-21T06:24:37Z</time>
      </trkpt>
      <trkpt lat="44.85533" lon="5.54502">
        <ele>1135.38</ele>
        <time>2017-04-21T06:25:03Z</time>
      </trkpt>
      <trkpt lat="44.85536" lon="5.54475">
        <ele>1129.66</ele>
        <time>2017-04-21T06:25:31Z</time>
      </trkpt>
      <trkpt lat="44.85543" lon="5.5445">
        <ele>1133.17</ele>
        <time>2017-04-21T06:25:53Z</time>
      </trkpt>
      <trkpt lat="44.85553" lon="5.54429">
        <ele>1149.05</ele>
        <time>2017-04-21T06:26:14Z</time>
      </trkpt>
      <trkpt lat="44.85557" lon="5.54387">
        <ele>1178.05</ele>
        <time>2017-04-21T06:26:44Z</time>
      </trkpt>
      <trkpt lat="44.85561" lon="5.54362">
        <ele>1196.76</ele>
        <time>2017-04-21T06:27:01Z</time>
      </trkpt>
      <trkpt lat="44.85577" lon="5.54344">
        <ele>1215.21</ele>
        <time>2017-04-21T06:27:19Z</time>
      </trkpt>
      <trkpt lat="44.85593" lon="5.54334">
        <ele>1233.28</ele>
        <time>2017-04-21T06:27:53Z</time>
      </trkpt>
      <trkpt lat="44.85605" lon="5.54314">
        <ele>1245.81</ele>
        <time>2017-04-21T06:28:29Z</time>
      </trkpt>
      <trkpt lat="44.85602" lon="5.54288">
        <ele>1249.82</ele>
        <time>2017-04-21T06:29:03Z</time>
      </trkpt>
      <trkpt lat="44.85609" lon="5.54264">
        <ele>1243.12</ele>
        <time>2017-04-21T06:29:29Z</time>
      </trkpt>
      <trkpt lat="44.85619" lon="5.54241">
        <ele>1237.71</ele>
        <time>2017-04-21T06:29:51Z</time>
      </trkpt>
      <trkpt lat="44.85631" lon="5.54221">
        <ele>1237.34</ele>
        <time>2017-04-21T06:30:19Z</time>
      </trkpt>
      <trkpt lat="44.85639" lon="5.54197">
        <ele>1242.31</ele>
        <time>2017-04-21T06:30:45Z</time>
      </trkpt>
      <trkpt lat="44.85645" lon="5.54111">
        <ele>1210.55</ele>
        <time>2017-04-21T06:31:28Z</time>
      </trkpt>
      <trkpt lat="44.85656" lon="5.54091">
        <ele>1292.14</ele>
        <time>2017-04-21T06:32:08Z</time>
      </trkpt>
      <trkpt lat="44.85664" lon="5.54067">
        <ele>1294.34</ele>
        <time>2017-04-21T06:32:42Z</time>
      </trkpt>
      <trkpt lat="44.85674" lon="5.54046">
        <ele>1290.25</ele>
        <time>2017-04-21T06:33:04Z</time>
      </trkpt>
      <trkpt lat="44.85685" lon="5.54026">
        <ele>1294.42</ele>
        <time>2017-04-21T06:33:26Z</time>
      </trkpt>
      <trkpt lat="44.85696" lon="5.54004">
        <ele>1297.87</ele>
        <time>2017-04-21T06:33:50Z</time>
      </trkpt>
      <trkpt lat="44.85707" lon="5.53981">
        <ele>1300.3</ele>
        <time>2017-04-21T06:34:22Z</time>
      </trkpt>
      <trkpt lat="44.85722" lon="5.53966">
        <ele>1300.68</ele>
        <time>2017-04-21T06:34:40Z</time>
      </trkpt>
      <trkpt lat="44.85738" lon="5.53952">
        <ele>1304.34</ele>
        <time>2017-04-21T06:35:08Z</time>
      </trkpt>
      <trkpt lat="44.85743" lon="5.53922">
        <ele>1325.57</ele>
        <time>2017-04-21T06:37:04Z</time>
      </trkpt>
      <trkpt lat="44.85739" lon="5.53897">
        <ele>1338.99</ele>
        <time>2017-04-21T06:37:30Z</time>
      </trkpt>
      <trkpt lat="44.85722" lon="5.53888">
        <ele>1341.51</ele>
        <time>2017-04-21T06:37:48Z</time>
      </trkpt>
      <trkpt lat="44.85706" lon="5.53873">
        <ele>1336.14</ele>
        <time>2017-04-21T06:38:04Z</time>
      </trkpt>
      <trkpt lat="44.85695" lon="5.53853">
        <ele>1339.3</ele>
        <time>2017-04-21T06:38:26Z</time>
      </trkpt>
      <trkpt lat="44.85712" lon="5.53856">
        <ele>1354.29</ele>
        <time>2017-04-21T06:39:12Z</time>
      </trkpt>
      <trkpt lat="44.85705" lon="5.53833">
        <ele>1355.79</ele>
        <time>2017-04-21T06:40:02Z</time>
      </trkpt>
      <trkpt lat="44.8572" lon="5.53818">
        <ele>1370.67</ele>
        <time>2017-04-21T06:42:38Z</time>
      </trkpt>
      <trkpt lat="44.85723" lon="5.53793">
        <ele>1368.91</ele>
        <time>2017-04-21T06:43:48Z</time>
      </trkpt>
      <trkpt lat="44.85726" lon="5.53767">
        <ele>1371.55</ele>
        <time>2017-04-21T06:44:16Z</time>
      </trkpt>
      <trkpt lat="44.8573" lon="5.53742">
        <ele>1377.83</ele>
        <time>2017-04-21T06:44:54Z</time>
      </trkpt>
      <trkpt lat="44.85738" lon="5.53719">
        <ele>1381.15</ele>
        <time>2017-04-21T06:45:20Z</time>
      </trkpt>
      <trkpt lat="44.85733" lon="5.53694">
        <ele>1381.33</ele>
        <time>2017-04-21T06:45:44Z</time>
      </trkpt>
      <trkpt lat="44.85737" lon="5.53667">
        <ele>1381.31</ele>
        <time>2017-04-21T06:46:12Z</time>
      </trkpt>
      <trkpt lat="44.85755" lon="5.53655">
        <ele>1389.15</ele>
        <time>2017-04-21T06:46:34Z</time>
      </trkpt>
      <trkpt lat="44.85773" lon="5.53648">
        <ele>1403.05</ele>
        <time>2017-04-21T06:46:56Z</time>
      </trkpt>
      <trkpt lat="44.85776" lon="5.53622">
        <ele>1406.72</ele>
        <time>2017-04-21T06:47:30Z</time>
      </trkpt>
      <trkpt lat="44.85779" lon="5.53595">
        <ele>1410.17</ele>
        <time>2017-04-21T06:47:56Z</time>
      </trkpt>
      <trkpt lat="44.85776" lon="5.53568">
        <ele>1414.92</ele>
        <time>2017-04-21T06:49:44Z</time>
      </trkpt>
      <trkpt lat="44.85773" lon="5.5354">
        <ele>1409.8</ele>
        <time>2017-04-21T06:50:26Z</time>
      </trkpt>
      <trkpt lat="44.85769" lon="5.53513">
        <ele>1412.86</ele>
        <time>2017-04-21T06:50:42Z</time>
      </trkpt>
      <trkpt lat="44.85762" lon="5.53489">
        <ele>1421.79</ele>
        <time>2017-04-21T06:51:16Z</time>
      </trkpt>
      <trkpt lat="44.85757" lon="5.53461">
        <ele>1423.37</ele>
        <time>2017-04-21T06:51:40Z</time>
      </trkpt>
      <trkpt lat="44.85759" lon="5.53436">
        <ele>1422.87</ele>
        <time>2017-04-21T06:52:00Z</time>
      </trkpt>
      <trkpt lat="44.85747" lon="5.53415">
        <ele>1427.23</ele>
        <time>2017-04-21T06:52:26Z</time>
      </trkpt>
      <trkpt lat="44.85733" lon="5.53398">
        <ele>1424.77</ele>
        <time>2017-04-21T06:52:44Z</time>
      </trkpt>
      <trkpt lat="44.85719" lon="5.53379">
        <ele>1427.39</ele>
        <time>2017-04-21T06:53:06Z</time>
      </trkpt>
      <trkpt lat="44.85708" lon="5.53357">
        <ele>1431.91</ele>
        <time>2017-04-21T06:53:36Z</time>
      </trkpt>
      <trkpt lat="44.857" lon="5.53335">
        <ele>1433.96</ele>
        <time>2017-04-21T06:53:50Z</time>
      </trkpt>
      <trkpt lat="44.85682" lon="5.53318">
        <ele>1441.57</ele>
        <time>2017-04-21T06:54:04Z</time>
      </trkpt>
      <trkpt lat="44.85666" lon="5.53301">
        <ele>1443.27</ele>
        <time>2017-04-21T06:54:24Z</time>
      </trkpt>
      <trkpt lat="44.85653" lon="5.53281">
        <ele>1449.47</ele>
        <time>2017-04-21T06:54:46Z</time>
      </trkpt>
      <trkpt lat="44.85626" lon="5.53237">
        <ele>1479.05</ele>
        <time>2017-04-21T06:55:30Z</time>
      </trkpt>
      <trkpt lat="44.85621" lon="5.53211">
        <ele>1469.5</ele>
        <time>2017-04-21T06:55:59Z</time>
      </trkpt>
      <trkpt lat="44.85616" lon="5.53186">
        <ele>1468.1</ele>
        <time>2017-04-21T06:56:23Z</time>
      </trkpt>
      <trkpt lat="44.85604" lon="5.53166">
        <ele>1472.51</ele>
        <time>2017-04-21T06:56:59Z</time>
      </trkpt>
      <trkpt lat="44.85586" lon="5.53158">
        <ele>1475.26</ele>
        <time>2017-04-21T06:57:17Z</time>
      </trkpt>
      <trkpt lat="44.85578" lon="5.53132">
        <ele>1484.8</ele>
        <time>2017-04-21T06:57:51Z</time>
      </trkpt>
      <trkpt lat="44.85566" lon="5.53112">
        <ele>1480.45</ele>
        <time>2017-04-21T06:58:23Z</time>
      </trkpt>
      <trkpt lat="44.85553" lon="5.53095">
        <ele>1481.31</ele>
        <time>2017-04-21T06:58:45Z</time>
      </trkpt>
      <trkpt lat="44.85536" lon="5.53083">
        <ele>1485.85</ele>
        <time>2017-04-21T06:59:09Z</time>
      </trkpt>
      <trkpt lat="44.85524" lon="5.5306">
        <ele>1487.15</ele>
        <time>2017-04-21T06:59:35Z</time>
      </trkpt>
      <trkpt lat="44.85516" lon="5.53035">
        <ele>1507.53</ele>
        <time>2017-04-21T07:01:05Z</time>
      </trkpt>
      <trkpt lat="44.85523" lon="5.53012">
        <ele>1519.45</ele>
        <time>2017-04-21T07:01:41Z</time>
      </trkpt>
      <trkpt lat="44.85523" lon="5.52985">
        <ele>1519.59</ele>
        <time>2017-04-21T07:02:21Z</time>
      </trkpt>
      <trkpt lat="44.85512" lon="5.52964">
        <ele>1523.42</ele>
        <time>2017-04-21T07:02:45Z</time>
      </trkpt>
      <trkpt lat="44.85499" lon="5.52946">
        <ele>1531.15</ele>
        <time>2017-04-21T07:03:07Z</time>
      </trkpt>
      <trkpt lat="44.85486" lon="5.52929">
        <ele>1537.95</ele>
        <time>2017-04-21T07:03:59Z</time>
      </trkpt>
      <trkpt lat="44.85484" lon="5.52903">
        <ele>1540.97</ele>
        <time>2017-04-21T07:04:57Z</time>
      </trkpt>
      <trkpt lat="44.85475" lon="5.52881">
        <ele>1542.2</ele>
        <time>2017-04-21T07:05:37Z</time>
      </trkpt>
      <trkpt lat="44.85464" lon="5.5286">
        <ele>1549.92</ele>
        <time>2017-04-21T07:06:18Z</time>
      </trkpt>
      <trkpt lat="44.85456" lon="5.52836">
        <ele>1555.96</ele>
        <time>2017-04-21T07:07:00Z</time>
      </trkpt>
      <trkpt lat="44.85442" lon="5.5282">
        <ele>1559.57</ele>
        <time>2017-04-21T07:07:34Z</time>
      </trkpt>
      <trkpt lat="44.85436" lon="5.52795">
        <ele>1558.94</ele>
        <time>2017-04-21T07:08:08Z</time>
      </trkpt>
      <trkpt lat="44.85426" lon="5.52774">
        <ele>1561.76</ele>
        <time>2017-04-21T07:08:46Z</time>
      </trkpt>
      <trkpt lat="44.85415" lon="5.52754">
        <ele>1567.98</ele>
        <time>2017-04-21T07:09:20Z</time>
      </trkpt>
      <trkpt lat="44.85401" lon="5.52737">
        <ele>1578.33</ele>
        <time>2017-04-21T07:10:02Z</time>
      </trkpt>
      <trkpt lat="44.85387" lon="5.5272">
        <ele>1590.94</ele>
        <time>2017-04-21T07:10:52Z</time>
      </trkpt>
      <trkpt lat="44.85382" lon="5.52696">
        <ele>1592.8</ele>
        <time>2017-04-21T07:11:28Z</time>
      </trkpt>
      <trkpt lat="44.8537" lon="5.52676">
        <ele>1601.45</ele>
        <time>2017-04-21T07:12:02Z</time>
      </trkpt>
      <trkpt lat="44.85363" lon="5.52652">
        <ele>1619.97</ele>
        <time>2017-04-21T07:13:12Z</time>
      </trkpt>
      <trkpt lat="44.85349" lon="5.52634">
        <ele>1624.93</ele>
        <time>2017-04-21T07:13:44Z</time>
      </trkpt>
      <trkpt lat="44.85339" lon="5.52611">
        <ele>1624.09</ele>
        <time>2017-04-21T07:14:08Z</time>
      </trkpt>
      <trkpt lat="44.85322" lon="5.52596">
        <ele>1630.85</ele>
        <time>2017-04-21T07:15:11Z</time>
      </trkpt>
      <trkpt lat="44.85303" lon="5.52603">
        <ele>1648.99</ele>
        <time>2017-04-21T07:15:38Z</time>
      </trkpt>
      <trkpt lat="44.85305" lon="5.52577">
        <ele>1647.01</ele>
        <time>2017-04-21T07:16:22Z</time>
      </trkpt>
      <trkpt lat="44.85287" lon="5.52571">
        <ele>1658.45</ele>
        <time>2017-04-21T07:17:10Z</time>
      </trkpt>
      <trkpt lat="44.85278" lon="5.52548">
        <ele>1662.78</ele>
        <time>2017-04-21T07:17:52Z</time>
      </trkpt>
      <trkpt lat="44.85266" lon="5.52529">
        <ele>1683.34</ele>
        <time>2017-04-21T07:19:52Z</time>
      </trkpt>
      <trkpt lat="44.85252" lon="5.52512">
        <ele>1683.05</ele>
        <time>2017-04-21T07:20:38Z</time>
      </trkpt>
      <trkpt lat="44.85235" lon="5.52507">
        <ele>1692.67</ele>
        <time>2017-04-21T07:21:22Z</time>
      </trkpt>
      <trkpt lat="44.8522" lon="5.52491">
        <ele>1698.92</ele>
        <time>2017-04-21T07:22:04Z</time>
      </trkpt>
      <trkpt lat="44.85202" lon="5.52487">
        <ele>1709.32</ele>
        <time>2017-04-21T07:22:44Z</time>
      </trkpt>
      <trkpt lat="44.85192" lon="5.52465">
        <ele>1712.86</ele>
        <time>2017-04-21T07:23:36Z</time>
      </trkpt>
      <trkpt lat="44.85182" lon="5.52444">
        <ele>1722.13</ele>
        <time>2017-04-21T07:24:28Z</time>
      </trkpt>
      <trkpt lat="44.85164" lon="5.52433">
        <ele>1729.82</ele>
        <time>2017-04-21T07:25:18Z</time>
      </trkpt>
      <trkpt lat="44.8515" lon="5.52417">
        <ele>1735.11</ele>
        <time>2017-04-21T07:26:04Z</time>
      </trkpt>
      <trkpt lat="44.85133" lon="5.52406">
        <ele>1735.87</ele>
        <time>2017-04-21T07:26:32Z</time>
      </trkpt>
      <trkpt lat="44.85115" lon="5.52399">
        <ele>1746.8</ele>
        <time>2017-04-21T07:27:04Z</time>
      </trkpt>
      <trkpt lat="44.85116" lon="5.52373">
        <ele>1758.56</ele>
        <time>2017-04-21T07:28:16Z</time>
      </trkpt>
      <trkpt lat="44.85108" lon="5.5235">
        <ele>1763.46</ele>
        <time>2017-04-21T07:29:00Z</time>
      </trkpt>
      <trkpt lat="44.85099" lon="5.52327">
        <ele>1760.86</ele>
        <time>2017-04-21T07:29:56Z</time>
      </trkpt>
      <trkpt lat="44.85106" lon="5.52303">
        <ele>1773.04</ele>
        <time>2017-04-21T07:31:02Z</time>
      </trkpt>
      <trkpt lat="44.85089" lon="5.52293">
        <ele>1780.82</ele>
        <time>2017-04-21T07:31:34Z</time>
      </trkpt>
      <trkpt lat="44.85104" lon="5.52277">
        <ele>1774.41</ele>
        <time>2017-04-21T07:32:20Z</time>
      </trkpt>
      <trkpt lat="44.85122" lon="5.52274">
        <ele>1787.86</ele>
        <time>2017-04-21T07:32:54Z</time>
      </trkpt>
      <trkpt lat="44.85138" lon="5.52261">
        <ele>1788.2</ele>
        <time>2017-04-21T07:33:10Z</time>
      </trkpt>
      <trkpt lat="44.85157" lon="5.52261">
        <ele>1809.24</ele>
        <time>2017-04-21T07:35:54Z</time>
      </trkpt>
      <trkpt lat="44.85173" lon="5.52247">
        <ele>1813.19</ele>
        <time>2017-04-21T07:36:30Z</time>
      </trkpt>
      <trkpt lat="44.85192" lon="5.52246">
        <ele>1816.85</ele>
        <time>2017-04-21T07:37:04Z</time>
      </trkpt>
      <trkpt lat="44.8521" lon="5.52242">
        <ele>1825.6</ele>
        <time>2017-04-21T07:37:24Z</time>
      </trkpt>
      <trkpt lat="44.85228" lon="5.52234">
        <ele>1832.56</ele>
        <time>2017-04-21T07:38:50Z</time>
      </trkpt>
      <trkpt lat="44.85245" lon="5.52225">
        <ele>1838.54</ele>
        <time>2017-04-21T07:39:32Z</time>
      </trkpt>
      <trkpt lat="44.85259" lon="5.52207">
        <ele>1830.05</ele>
        <time>2017-04-21T07:39:52Z</time>
      </trkpt>
      <trkpt lat="44.85277" lon="5.52202">
        <ele>1843.3</ele>
        <time>2017-04-21T07:40:50Z</time>
      </trkpt>
      <trkpt lat="44.85296" lon="5.52197">
        <ele>1858.02</ele>
        <time>2017-04-21T07:41:44Z</time>
      </trkpt>
      <trkpt lat="44.85313" lon="5.52208">
        <ele>1868.44</ele>
        <time>2017-04-21T07:42:26Z</time>
      </trkpt>
      <trkpt lat="44.85331" lon="5.52217">
        <ele>1871.39</ele>
        <time>2017-04-21T07:43:04Z</time>
      </trkpt>
      <trkpt lat="44.85341" lon="5.52195">
        <ele>1875.91</ele>
        <time>2017-04-21T07:46:22Z</time>
      </trkpt>
      <trkpt lat="44.85344" lon="5.5222">
        <ele>1880.05</ele>
        <time>2017-04-21T07:47:48Z</time>
      </trkpt>
      <trkpt lat="44.85361" lon="5.52237">
        <ele>1879.08</ele>
        <time>2017-04-21T07:49:44Z</time>
      </trkpt>
      <trkpt lat="44.85375" lon="5.52254">
        <ele>1878.56</ele>
        <time>2017-04-21T07:50:00Z</time>
      </trkpt>
      <trkpt lat="44.85388" lon="5.52273">
        <ele>1879.3</ele>
        <time>2017-04-21T07:50:20Z</time>
      </trkpt>
      <trkpt lat="44.85401" lon="5.52291">
        <ele>1878.04</ele>
        <time>2017-04-21T07:50:36Z</time>
      </trkpt>
      <trkpt lat="44.85416" lon="5.52307">
        <ele>1878.7</ele>
        <time>2017-04-21T07:50:58Z</time>
      </trkpt>
      <trkpt lat="44.85432" lon="5.52322">
        <ele>1880.91</ele>
        <time>2017-04-21T07:51:18Z</time>
      </trkpt>
      <trkpt lat="44.85446" lon="5.5234">
        <ele>1880.3</ele>
        <time>2017-04-21T07:52:28Z</time>
      </trkpt>
      <trkpt lat="44.85461" lon="5.52357">
        <ele>1870.44</ele>
        <time>2017-04-21T07:53:18Z</time>
      </trkpt>
      <trkpt lat="44.85478" lon="5.52363">
        <ele>1873.29</ele>
        <time>2017-04-21T07:54:12Z</time>
      </trkpt>
      <trkpt lat="44.85497" lon="5.52371">
        <ele>1872.8</ele>
        <time>2017-04-21T07:55:40Z</time>
      </trkpt>
      <trkpt lat="44.85515" lon="5.52373">
        <ele>1874.3</ele>
        <time>2017-04-21T07:57:18Z</time>
      </trkpt>
      <trkpt lat="44.85531" lon="5.52385">
        <ele>1879.96</ele>
        <time>2017-04-21T07:58:40Z</time>
      </trkpt>
      <trkpt lat="44.85549" lon="5.52393">
        <ele>1884.8</ele>
        <time>2017-04-21T08:00:12Z</time>
      </trkpt>
      <trkpt lat="44.85562" lon="5.52413">
        <ele>1888.05</ele>
        <time>2017-04-21T08:01:22Z</time>
      </trkpt>
      <trkpt lat="44.85564" lon="5.52439">
        <ele>1892.05</ele>
        <time>2017-04-21T08:08:57Z</time>
      </trkpt>
      <trkpt lat="44.85584" lon="5.52451">
        <ele>1892.15</ele>
        <time>2017-04-21T08:09:23Z</time>
      </trkpt>
      <trkpt lat="44.85597" lon="5.52467">
        <ele>1894.67</ele>
        <time>2017-04-21T08:09:39Z</time>
      </trkpt>
      <trkpt lat="44.85608" lon="5.5249">
        <ele>1894.08</ele>
        <time>2017-04-21T08:09:57Z</time>
      </trkpt>
      <trkpt lat="44.85625" lon="5.52504">
        <ele>1893.93</ele>
        <time>2017-04-21T08:10:27Z</time>
      </trkpt>
      <trkpt lat="44.85643" lon="5.52512">
        <ele>1895.85</ele>
        <time>2017-04-21T08:10:45Z</time>
      </trkpt>
      <trkpt lat="44.85656" lon="5.52531">
        <ele>1892.04</ele>
        <time>2017-04-21T08:11:07Z</time>
      </trkpt>
      <trkpt lat="44.85673" lon="5.52541">
        <ele>1896.01</ele>
        <time>2017-04-21T08:11:25Z</time>
      </trkpt>
      <trkpt lat="44.85691" lon="5.52552">
        <ele>1896.56</ele>
        <time>2017-04-21T08:11:43Z</time>
      </trkpt>
      <trkpt lat="44.85709" lon="5.52564">
        <ele>1895.87</ele>
        <time>2017-04-21T08:12:01Z</time>
      </trkpt>
      <trkpt lat="44.85721" lon="5.52582">
        <ele>1891.71</ele>
        <time>2017-04-21T08:12:27Z</time>
      </trkpt>
      <trkpt lat="44.85734" lon="5.52603">
        <ele>1889.25</ele>
        <time>2017-04-21T08:12:55Z</time>
      </trkpt>
      <trkpt lat="44.85752" lon="5.52601">
        <ele>1880.36</ele>
        <time>2017-04-21T08:13:47Z</time>
      </trkpt>
      <trkpt lat="44.85772" lon="5.52598">
        <ele>1876.36</ele>
        <time>2017-04-21T08:14:11Z</time>
      </trkpt>
      <trkpt lat="44.8579" lon="5.52598">
        <ele>1870.82</ele>
        <time>2017-04-21T08:14:31Z</time>
      </trkpt>
      <trkpt lat="44.85804" lon="5.52614">
        <ele>1867.85</ele>
        <time>2017-04-21T08:14:59Z</time>
      </trkpt>
      <trkpt lat="44.85823" lon="5.52621">
        <ele>1861.43</ele>
        <time>2017-04-21T08:15:29Z</time>
      </trkpt>
      <trkpt lat="44.85839" lon="5.52635">
        <ele>1863.61</ele>
        <time>2017-04-21T08:16:05Z</time>
      </trkpt>
      <trkpt lat="44.85854" lon="5.52619">
        <ele>1855.76</ele>
        <time>2017-04-21T08:16:29Z</time>
      </trkpt>
      <trkpt lat="44.85869" lon="5.52601">
        <ele>1854.11</ele>
        <time>2017-04-21T08:16:51Z</time>
      </trkpt>
      <trkpt lat="44.85884" lon="5.52615">
        <ele>1861.59</ele>
        <time>2017-04-21T08:17:13Z</time>
      </trkpt>
      <trkpt lat="44.85902" lon="5.5262">
        <ele>1865.64</ele>
        <time>2017-04-21T08:17:39Z</time>
      </trkpt>
      <trkpt lat="44.8592" lon="5.52615">
        <ele>1871.65</ele>
        <time>2017-04-21T08:18:29Z</time>
      </trkpt>
      <trkpt lat="44.85939" lon="5.52618">
        <ele>1876.13</ele>
        <time>2017-04-21T08:18:59Z</time>
      </trkpt>
      <trkpt lat="44.85958" lon="5.52626">
        <ele>1881.96</ele>
        <time>2017-04-21T08:19:39Z</time>
      </trkpt>
      <trkpt lat="44.85976" lon="5.52633">
        <ele>1887.27</ele>
        <time>2017-04-21T08:20:05Z</time>
      </trkpt>
      <trkpt lat="44.85995" lon="5.52638">
        <ele>1889.8</ele>
        <time>2017-04-21T08:20:39Z</time>
      </trkpt>
      <trkpt lat="44.8601" lon="5.52654">
        <ele>1892.4</ele>
        <time>2017-04-21T08:21:01Z</time>
      </trkpt>
      <trkpt lat="44.86021" lon="5.52676">
        <ele>1896.33</ele>
        <time>2017-04-21T08:21:59Z</time>
      </trkpt>
      <trkpt lat="44.86039" lon="5.52678">
        <ele>1901.71</ele>
        <time>2017-04-21T08:22:47Z</time>
      </trkpt>
      <trkpt lat="44.86055" lon="5.52692">
        <ele>1904</ele>
        <time>2017-04-21T08:23:17Z</time>
      </trkpt>
      <trkpt lat="44.8607" lon="5.52707">
        <ele>1911.6</ele>
        <time>2017-04-21T08:23:47Z</time>
      </trkpt>
      <trkpt lat="44.86088" lon="5.52702">
        <ele>1909.95</ele>
        <time>2017-04-21T08:24:13Z</time>
      </trkpt>
      <trkpt lat="44.86103" lon="5.52716">
        <ele>1914.47</ele>
        <time>2017-04-21T08:24:43Z</time>
      </trkpt>
      <trkpt lat="44.86114" lon="5.52736">
        <ele>1920.92</ele>
        <time>2017-04-21T08:25:17Z</time>
      </trkpt>
      <trkpt lat="44.86117" lon="5.52763">
        <ele>1925.51</ele>
        <time>2017-04-21T08:25:55Z</time>
      </trkpt>
      <trkpt lat="44.86129" lon="5.52782">
        <ele>1928.93</ele>
        <time>2017-04-21T08:26:17Z</time>
      </trkpt>
      <trkpt lat="44.8614" lon="5.52805">
        <ele>1935.98</ele>
        <time>2017-04-21T08:26:47Z</time>
      </trkpt>
      <trkpt lat="44.86149" lon="5.52828">
        <ele>1942.03</ele>
        <time>2017-04-21T08:27:19Z</time>
      </trkpt>
      <trkpt lat="44.86148" lon="5.52855">
        <ele>1940.52</ele>
        <time>2017-04-21T08:27:47Z</time>
      </trkpt>
      <trkpt lat="44.86162" lon="5.52871">
        <ele>1947.95</ele>
        <time>2017-04-21T08:28:27Z</time>
      </trkpt>
      <trkpt lat="44.86177" lon="5.52887">
        <ele>1956.92</ele>
        <time>2017-04-21T08:29:21Z</time>
      </trkpt>
      <trkpt lat="44.86166" lon="5.5291">
        <ele>1968.55</ele>
        <time>2017-04-21T08:30:07Z</time>
      </trkpt>
      <trkpt lat="44.86161" lon="5.52935">
        <ele>1981.95</ele>
        <time>2017-04-21T08:31:03Z</time>
      </trkpt>
      <trkpt lat="44.86154" lon="5.5296">
        <ele>1986.79</ele>
        <time>2017-04-21T08:31:45Z</time>
      </trkpt>
      <trkpt lat="44.8617" lon="5.52972">
        <ele>2004.87</ele>
        <time>2017-04-21T08:34:13Z</time>
      </trkpt>
      <trkpt lat="44.86188" lon="5.52971">
        <ele>2013.4</ele>
        <time>2017-04-21T08:34:59Z</time>
      </trkpt>
      <trkpt lat="44.86206" lon="5.52979">
        <ele>2017.49</ele>
        <time>2017-04-21T08:35:29Z</time>
      </trkpt>
      <trkpt lat="44.86225" lon="5.52988">
        <ele>2015.62</ele>
        <time>2017-04-21T08:42:52Z</time>
      </trkpt>
      <trkpt lat="44.86244" lon="5.52989">
        <ele>2015.05</ele>
        <time>2017-04-21T08:43:10Z</time>
      </trkpt>
      <trkpt lat="44.86262" lon="5.52996">
        <ele>2020.17</ele>
        <time>2017-04-21T08:43:52Z</time>
      </trkpt>
      <trkpt lat="44.86279" lon="5.53005">
        <ele>2021.84</ele>
        <time>2017-04-21T08:44:58Z</time>
      </trkpt>
      <trkpt lat="44.86295" lon="5.53016">
        <ele>2032.08</ele>
        <time>2017-04-21T08:45:28Z</time>
      </trkpt>
      <trkpt lat="44.86312" lon="5.53024">
        <ele>2030.54</ele>
        <time>2017-04-21T08:46:28Z</time>
      </trkpt>
      <trkpt lat="44.8633" lon="5.53018">
        <ele>2032.8</ele>
        <time>2017-04-21T08:46:44Z</time>
      </trkpt>
      <trkpt lat="44.86344" lon="5.53037">
        <ele>2049.48</ele>
        <time>2017-04-21T08:47:52Z</time>
      </trkpt>
      <trkpt lat="44.86361" lon="5.53054">
        <ele>2036.55</ele>
        <time>2017-04-21T08:48:32Z</time>
      </trkpt>
      <trkpt lat="44.8638" lon="5.53053">
        <ele>2031.55</ele>
        <time>2017-04-21T08:52:04Z</time>
      </trkpt>
      <trkpt lat="44.86414" lon="5.53063">
        <ele>2029.05</ele>
        <time>2017-04-21T08:53:50Z</time>
      </trkpt>
      <trkpt lat="44.86429" lon="5.53048">
        <ele>2050.35</ele>
        <time>2017-04-21T08:54:51Z</time>
      </trkpt>
      <trkpt lat="44.86444" lon="5.53061">
        <ele>2062.32</ele>
        <time>2017-04-21T08:55:23Z</time>
      </trkpt>
      <trkpt lat="44.86458" lon="5.53077">
        <ele>2077.82</ele>
        <time>2017-04-21T08:56:09Z</time>
      </trkpt>
      <trkpt lat="44.86471" lon="5.53097">
        <ele>2085.68</ele>
        <time>2017-04-21T08:57:09Z</time>
      </trkpt>
      <trkpt lat="44.86455" lon="5.53109">
        <ele>2095.07</ele>
        <time>2017-04-21T08:59:55Z</time>
      </trkpt>
      <trkpt lat="44.86437" lon="5.53107">
        <ele>2118.08</ele>
        <time>2017-04-21T09:00:35Z</time>
      </trkpt>
      <trkpt lat="44.86421" lon="5.53092">
        <ele>2120.5</ele>
        <time>2017-04-21T09:01:01Z</time>
      </trkpt>
      <trkpt lat="44.86404" lon="5.5308">
        <ele>2116.04</ele>
        <time>2017-04-21T09:01:35Z</time>
      </trkpt>
      <trkpt lat="44.86423" lon="5.53089">
        <ele>2113.19</ele>
        <time>2017-04-21T09:05:11Z</time>
      </trkpt>
      <trkpt lat="44.86442" lon="5.53085">
        <ele>2103.68</ele>
        <time>2017-04-21T09:05:55Z</time>
      </trkpt>
      <trkpt lat="44.86461" lon="5.53085">
        <ele>2097.56</ele>
        <time>2017-04-21T09:06:17Z</time>
      </trkpt>
      <trkpt lat="44.86481" lon="5.53082">
        <ele>2087.92</ele>
        <time>2017-04-21T09:06:41Z</time>
      </trkpt>
      <trkpt lat="44.86498" lon="5.53073">
        <ele>2076.53</ele>
        <time>2017-04-21T09:07:07Z</time>
      </trkpt>
      <trkpt lat="44.8651" lon="5.53052">
        <ele>2066.46</ele>
        <time>2017-04-21T09:07:37Z</time>
      </trkpt>
      <trkpt lat="44.86516" lon="5.53028">
        <ele>2062.9</ele>
        <time>2017-04-21T09:08:05Z</time>
      </trkpt>
      <trkpt lat="44.86524" lon="5.53003">
        <ele>2058.51</ele>
        <time>2017-04-21T09:08:35Z</time>
      </trkpt>
      <trkpt lat="44.86541" lon="5.52993">
        <ele>2058.98</ele>
        <time>2017-04-21T09:08:51Z</time>
      </trkpt>
      <trkpt lat="44.8656" lon="5.52993">
        <ele>2061.68</ele>
        <time>2017-04-21T09:09:07Z</time>
      </trkpt>
      <trkpt lat="44.86548" lon="5.52971">
        <ele>2060.21</ele>
        <time>2017-04-21T09:09:37Z</time>
      </trkpt>
      <trkpt lat="44.86535" lon="5.52952">
        <ele>2056.87</ele>
        <time>2017-04-21T09:09:53Z</time>
      </trkpt>
      <trkpt lat="44.86525" lon="5.52929">
        <ele>2053.93</ele>
        <time>2017-04-21T09:10:11Z</time>
      </trkpt>
      <trkpt lat="44.86505" lon="5.52925">
        <ele>2050.51</ele>
        <time>2017-04-21T09:10:29Z</time>
      </trkpt>
      <trkpt lat="44.86487" lon="5.52918">
        <ele>2044.96</ele>
        <time>2017-04-21T09:10:47Z</time>
      </trkpt>
      <trkpt lat="44.8647" lon="5.52906">
        <ele>2039.43</ele>
        <time>2017-04-21T09:11:09Z</time>
      </trkpt>
      <trkpt lat="44.86455" lon="5.52888">
        <ele>2037.66</ele>
        <time>2017-04-21T09:11:31Z</time>
      </trkpt>
      <trkpt lat="44.86442" lon="5.5287">
        <ele>2028.02</ele>
        <time>2017-04-21T09:11:57Z</time>
      </trkpt>
      <trkpt lat="44.86423" lon="5.52864">
        <ele>2018.39</ele>
        <time>2017-04-21T09:12:23Z</time>
      </trkpt>
      <trkpt lat="44.86407" lon="5.52854">
        <ele>2012.74</ele>
        <time>2017-04-21T09:12:49Z</time>
      </trkpt>
      <trkpt lat="44.8639" lon="5.5284">
        <ele>2007.7</ele>
        <time>2017-04-21T09:13:15Z</time>
      </trkpt>
      <trkpt lat="44.86375" lon="5.52825">
        <ele>2002.72</ele>
        <time>2017-04-21T09:13:35Z</time>
      </trkpt>
      <trkpt lat="44.86356" lon="5.5283">
        <ele>1994.09</ele>
        <time>2017-04-21T09:13:59Z</time>
      </trkpt>
      <trkpt lat="44.8634" lon="5.52816">
        <ele>1981.02</ele>
        <time>2017-04-21T09:14:45Z</time>
      </trkpt>
      <trkpt lat="44.8632" lon="5.52812">
        <ele>1977.72</ele>
        <time>2017-04-21T09:15:05Z</time>
      </trkpt>
      <trkpt lat="44.86303" lon="5.52801">
        <ele>1973.94</ele>
        <time>2017-04-21T09:15:21Z</time>
      </trkpt>
      <trkpt lat="44.86285" lon="5.52793">
        <ele>1972.55</ele>
        <time>2017-04-21T09:15:37Z</time>
      </trkpt>
      <trkpt lat="44.86266" lon="5.52791">
        <ele>1967.44</ele>
        <time>2017-04-21T09:16:11Z</time>
      </trkpt>
      <trkpt lat="44.86247" lon="5.52784">
        <ele>1964.21</ele>
        <time>2017-04-21T09:16:31Z</time>
      </trkpt>
      <trkpt lat="44.86234" lon="5.52765">
        <ele>1960.59</ele>
        <time>2017-04-21T09:16:45Z</time>
      </trkpt>
      <trkpt lat="44.86215" lon="5.52766">
        <ele>1954.29</ele>
        <time>2017-04-21T09:17:07Z</time>
      </trkpt>
      <trkpt lat="44.86195" lon="5.52766">
        <ele>1952.32</ele>
        <time>2017-04-21T09:17:23Z</time>
      </trkpt>
      <trkpt lat="44.86176" lon="5.5277">
        <ele>1949.43</ele>
        <time>2017-04-21T09:17:57Z</time>
      </trkpt>
      <trkpt lat="44.86158" lon="5.52761">
        <ele>1939.41</ele>
        <time>2017-04-21T09:18:25Z</time>
      </trkpt>
      <trkpt lat="44.86142" lon="5.52747">
        <ele>1934.44</ele>
        <time>2017-04-21T09:18:43Z</time>
      </trkpt>
      <trkpt lat="44.86126" lon="5.52729">
        <ele>1927.79</ele>
        <time>2017-04-21T09:19:01Z</time>
      </trkpt>
      <trkpt lat="44.86112" lon="5.52712">
        <ele>1924.4</ele>
        <time>2017-04-21T09:19:21Z</time>
      </trkpt>
      <trkpt lat="44.86095" lon="5.52701">
        <ele>1920.35</ele>
        <time>2017-04-21T09:19:39Z</time>
      </trkpt>
      <trkpt lat="44.8608" lon="5.52686">
        <ele>1913.98</ele>
        <time>2017-04-21T09:19:57Z</time>
      </trkpt>
      <trkpt lat="44.86067" lon="5.52667">
        <ele>1907.1</ele>
        <time>2017-04-21T09:20:21Z</time>
      </trkpt>
      <trkpt lat="44.86048" lon="5.52659">
        <ele>1904.67</ele>
        <time>2017-04-21T09:20:39Z</time>
      </trkpt>
      <trkpt lat="44.86034" lon="5.52643">
        <ele>1898.07</ele>
        <time>2017-04-21T09:21:07Z</time>
      </trkpt>
      <trkpt lat="44.86016" lon="5.52638">
        <ele>1892.19</ele>
        <time>2017-04-21T09:21:27Z</time>
      </trkpt>
      <trkpt lat="44.85998" lon="5.5263">
        <ele>1887.34</ele>
        <time>2017-04-21T09:21:43Z</time>
      </trkpt>
      <trkpt lat="44.85979" lon="5.52624">
        <ele>1880.32</ele>
        <time>2017-04-21T09:22:01Z</time>
      </trkpt>
      <trkpt lat="44.85961" lon="5.52618">
        <ele>1877.22</ele>
        <time>2017-04-21T09:22:21Z</time>
      </trkpt>
      <trkpt lat="44.85943" lon="5.52605">
        <ele>1872.57</ele>
        <time>2017-04-21T09:22:43Z</time>
      </trkpt>
      <trkpt lat="44.85932" lon="5.52585">
        <ele>1869.93</ele>
        <time>2017-04-21T09:23:04Z</time>
      </trkpt>
      <trkpt lat="44.85915" lon="5.52574">
        <ele>1869.63</ele>
        <time>2017-04-21T09:23:18Z</time>
      </trkpt>
      <trkpt lat="44.85899" lon="5.52557">
        <ele>1871.98</ele>
        <time>2017-04-21T09:23:36Z</time>
      </trkpt>
      <trkpt lat="44.85881" lon="5.52545">
        <ele>1867.88</ele>
        <time>2017-04-21T09:23:52Z</time>
      </trkpt>
      <trkpt lat="44.85864" lon="5.5254">
        <ele>1865.44</ele>
        <time>2017-04-21T09:24:12Z</time>
      </trkpt>
      <trkpt lat="44.85844" lon="5.52531">
        <ele>1863.86</ele>
        <time>2017-04-21T09:24:32Z</time>
      </trkpt>
      <trkpt lat="44.85826" lon="5.52536">
        <ele>1866.47</ele>
        <time>2017-04-21T09:24:50Z</time>
      </trkpt>
      <trkpt lat="44.85808" lon="5.52541">
        <ele>1871.37</ele>
        <time>2017-04-21T09:25:08Z</time>
      </trkpt>
      <trkpt lat="44.85789" lon="5.52536">
        <ele>1877.29</ele>
        <time>2017-04-21T09:25:56Z</time>
      </trkpt>
      <trkpt lat="44.85771" lon="5.52531">
        <ele>1877.61</ele>
        <time>2017-04-21T09:26:16Z</time>
      </trkpt>
      <trkpt lat="44.85754" lon="5.52524">
        <ele>1881.81</ele>
        <time>2017-04-21T09:26:34Z</time>
      </trkpt>
      <trkpt lat="44.85735" lon="5.52529">
        <ele>1886.52</ele>
        <time>2017-04-21T09:27:06Z</time>
      </trkpt>
      <trkpt lat="44.85716" lon="5.52533">
        <ele>1890.33</ele>
        <time>2017-04-21T09:27:32Z</time>
      </trkpt>
      <trkpt lat="44.85695" lon="5.52535">
        <ele>1891.58</ele>
        <time>2017-04-21T09:27:52Z</time>
      </trkpt>
      <trkpt lat="44.85675" lon="5.52536">
        <ele>1897.37</ele>
        <time>2017-04-21T09:28:10Z</time>
      </trkpt>
      <trkpt lat="44.85657" lon="5.52525">
        <ele>1900.73</ele>
        <time>2017-04-21T09:28:26Z</time>
      </trkpt>
      <trkpt lat="44.85639" lon="5.52517">
        <ele>1899.88</ele>
        <time>2017-04-21T09:28:42Z</time>
      </trkpt>
      <trkpt lat="44.85625" lon="5.52498">
        <ele>1893.94</ele>
        <time>2017-04-21T09:29:14Z</time>
      </trkpt>
      <trkpt lat="44.85607" lon="5.52486">
        <ele>1893.05</ele>
        <time>2017-04-21T09:29:30Z</time>
      </trkpt>
      <trkpt lat="44.85594" lon="5.52466">
        <ele>1892.31</ele>
        <time>2017-04-21T09:29:56Z</time>
      </trkpt>
      <trkpt lat="44.85577" lon="5.52452">
        <ele>1892.53</ele>
        <time>2017-04-21T09:30:14Z</time>
      </trkpt>
      <trkpt lat="44.85561" lon="5.52436">
        <ele>1893.77</ele>
        <time>2017-04-21T09:30:40Z</time>
      </trkpt>
      <trkpt lat="44.85553" lon="5.52413">
        <ele>1888.51</ele>
        <time>2017-04-21T09:31:00Z</time>
      </trkpt>
      <trkpt lat="44.85546" lon="5.5239">
        <ele>1885.4</ele>
        <time>2017-04-21T09:31:24Z</time>
      </trkpt>
      <trkpt lat="44.85529" lon="5.5238">
        <ele>1883.52</ele>
        <time>2017-04-21T09:31:50Z</time>
      </trkpt>
      <trkpt lat="44.85511" lon="5.52375">
        <ele>1881.51</ele>
        <time>2017-04-21T09:32:08Z</time>
      </trkpt>
      <trkpt lat="44.85492" lon="5.52372">
        <ele>1877.94</ele>
        <time>2017-04-21T09:32:24Z</time>
      </trkpt>
      <trkpt lat="44.85474" lon="5.52364">
        <ele>1879.19</ele>
        <time>2017-04-21T09:32:50Z</time>
      </trkpt>
      <trkpt lat="44.85457" lon="5.52352">
        <ele>1880</ele>
        <time>2017-04-21T09:33:08Z</time>
      </trkpt>
      <trkpt lat="44.85441" lon="5.52339">
        <ele>1882.53</ele>
        <time>2017-04-21T09:33:26Z</time>
      </trkpt>
      <trkpt lat="44.85426" lon="5.5232">
        <ele>1882.06</ele>
        <time>2017-04-21T09:33:44Z</time>
      </trkpt>
      <trkpt lat="44.8541" lon="5.52309">
        <ele>1882.05</ele>
        <time>2017-04-21T09:34:02Z</time>
      </trkpt>
      <trkpt lat="44.85395" lon="5.52291">
        <ele>1878.52</ele>
        <time>2017-04-21T09:34:24Z</time>
      </trkpt>
      <trkpt lat="44.85381" lon="5.5227">
        <ele>1878.33</ele>
        <time>2017-04-21T09:36:22Z</time>
      </trkpt>
      <trkpt lat="44.8537" lon="5.52249">
        <ele>1880.36</ele>
        <time>2017-04-21T09:36:42Z</time>
      </trkpt>
      <trkpt lat="44.85353" lon="5.52237">
        <ele>1882.59</ele>
        <time>2017-04-21T09:37:00Z</time>
      </trkpt>
      <trkpt lat="44.85335" lon="5.52225">
        <ele>1877.33</ele>
        <time>2017-04-21T09:37:46Z</time>
      </trkpt>
      <trkpt lat="44.85317" lon="5.52218">
        <ele>1874.49</ele>
        <time>2017-04-21T09:38:23Z</time>
      </trkpt>
      <trkpt lat="44.85299" lon="5.52212">
        <ele>1868.99</ele>
        <time>2017-04-21T09:38:59Z</time>
      </trkpt>
      <trkpt lat="44.85283" lon="5.52201">
        <ele>1861.12</ele>
        <time>2017-04-21T09:39:57Z</time>
      </trkpt>
      <trkpt lat="44.85273" lon="5.52226">
        <ele>1852.77</ele>
        <time>2017-04-21T09:41:03Z</time>
      </trkpt>
      <trkpt lat="44.85254" lon="5.52226">
        <ele>1842.71</ele>
        <time>2017-04-21T09:41:43Z</time>
      </trkpt>
      <trkpt lat="44.85236" lon="5.52237">
        <ele>1847.71</ele>
        <time>2017-04-21T09:42:11Z</time>
      </trkpt>
      <trkpt lat="44.85221" lon="5.52256">
        <ele>1849.27</ele>
        <time>2017-04-21T09:42:35Z</time>
      </trkpt>
      <trkpt lat="44.85202" lon="5.5226">
        <ele>1838.63</ele>
        <time>2017-04-21T09:44:07Z</time>
      </trkpt>
      <trkpt lat="44.85183" lon="5.5226">
        <ele>1835.3</ele>
        <time>2017-04-21T09:44:23Z</time>
      </trkpt>
      <trkpt lat="44.85166" lon="5.52266">
        <ele>1833.46</ele>
        <time>2017-04-21T09:45:09Z</time>
      </trkpt>
      <trkpt lat="44.85148" lon="5.52274">
        <ele>1825.23</ele>
        <time>2017-04-21T09:45:31Z</time>
      </trkpt>
      <trkpt lat="44.8513" lon="5.52286">
        <ele>1821.1</ele>
        <time>2017-04-21T09:45:49Z</time>
      </trkpt>
      <trkpt lat="44.85112" lon="5.52285">
        <ele>1817.3</ele>
        <time>2017-04-21T09:46:19Z</time>
      </trkpt>
      <trkpt lat="44.85093" lon="5.52293">
        <ele>1804.83</ele>
        <time>2017-04-21T09:46:41Z</time>
      </trkpt>
      <trkpt lat="44.85108" lon="5.52313">
        <ele>1801.46</ele>
        <time>2017-04-21T09:47:35Z</time>
      </trkpt>
      <trkpt lat="44.85097" lon="5.52333">
        <ele>1791.74</ele>
        <time>2017-04-21T09:48:05Z</time>
      </trkpt>
      <trkpt lat="44.85103" lon="5.52359">
        <ele>1782.18</ele>
        <time>2017-04-21T09:48:39Z</time>
      </trkpt>
      <trkpt lat="44.8512" lon="5.52372">
        <ele>1775.59</ele>
        <time>2017-04-21T09:49:01Z</time>
      </trkpt>
      <trkpt lat="44.85105" lon="5.52389">
        <ele>1764.93</ele>
        <time>2017-04-21T09:49:31Z</time>
      </trkpt>
      <trkpt lat="44.85117" lon="5.5241">
        <ele>1762.31</ele>
        <time>2017-04-21T09:50:27Z</time>
      </trkpt>
      <trkpt lat="44.85135" lon="5.52423">
        <ele>1755.79</ele>
        <time>2017-04-21T09:50:47Z</time>
      </trkpt>
      <trkpt lat="44.85152" lon="5.52437">
        <ele>1746.76</ele>
        <time>2017-04-21T09:51:09Z</time>
      </trkpt>
      <trkpt lat="44.8517" lon="5.52448">
        <ele>1744</ele>
        <time>2017-04-21T09:51:31Z</time>
      </trkpt>
      <trkpt lat="44.85186" lon="5.52462">
        <ele>1740.11</ele>
        <time>2017-04-21T09:51:51Z</time>
      </trkpt>
      <trkpt lat="44.85199" lon="5.52481">
        <ele>1725.25</ele>
        <time>2017-04-21T09:52:29Z</time>
      </trkpt>
      <trkpt lat="44.85214" lon="5.52496">
        <ele>1717.17</ele>
        <time>2017-04-21T09:52:51Z</time>
      </trkpt>
      <trkpt lat="44.8523" lon="5.52513">
        <ele>1704.44</ele>
        <time>2017-04-21T09:55:27Z</time>
      </trkpt>
      <trkpt lat="44.85247" lon="5.52521">
        <ele>1698.81</ele>
        <time>2017-04-21T09:55:51Z</time>
      </trkpt>
      <trkpt lat="44.85263" lon="5.52537">
        <ele>1690.01</ele>
        <time>2017-04-21T09:56:17Z</time>
      </trkpt>
      <trkpt lat="44.85277" lon="5.52555">
        <ele>1689.02</ele>
        <time>2017-04-21T09:56:51Z</time>
      </trkpt>
      <trkpt lat="44.85279" lon="5.52582">
        <ele>1675.82</ele>
        <time>2017-04-21T09:57:19Z</time>
      </trkpt>
      <trkpt lat="44.85298" lon="5.52579">
        <ele>1664.36</ele>
        <time>2017-04-21T09:57:49Z</time>
      </trkpt>
      <trkpt lat="44.85307" lon="5.52602">
        <ele>1646.59</ele>
        <time>2017-04-21T09:58:37Z</time>
      </trkpt>
      <trkpt lat="44.85326" lon="5.52608">
        <ele>1637.6</ele>
        <time>2017-04-21T09:58:57Z</time>
      </trkpt>
      <trkpt lat="44.85345" lon="5.52613">
        <ele>1626.01</ele>
        <time>2017-04-21T09:59:19Z</time>
      </trkpt>
      <trkpt lat="44.8536" lon="5.5263">
        <ele>1618.2</ele>
        <time>2017-04-21T09:59:37Z</time>
      </trkpt>
      <trkpt lat="44.85373" lon="5.52651">
        <ele>1612.82</ele>
        <time>2017-04-21T09:59:53Z</time>
      </trkpt>
      <trkpt lat="44.85384" lon="5.52672">
        <ele>1608.59</ele>
        <time>2017-04-21T10:00:11Z</time>
      </trkpt>
      <trkpt lat="44.85383" lon="5.52698">
        <ele>1597.07</ele>
        <time>2017-04-21T10:00:51Z</time>
      </trkpt>
      <trkpt lat="44.85388" lon="5.52725">
        <ele>1593.72</ele>
        <time>2017-04-21T10:01:23Z</time>
      </trkpt>
      <trkpt lat="44.85401" lon="5.52742">
        <ele>1587.54</ele>
        <time>2017-04-21T10:01:41Z</time>
      </trkpt>
      <trkpt lat="44.85413" lon="5.52761">
        <ele>1579.85</ele>
        <time>2017-04-21T10:02:01Z</time>
      </trkpt>
      <trkpt lat="44.85428" lon="5.52777">
        <ele>1573.03</ele>
        <time>2017-04-21T10:02:27Z</time>
      </trkpt>
      <trkpt lat="44.85441" lon="5.52796">
        <ele>1566.78</ele>
        <time>2017-04-21T10:02:45Z</time>
      </trkpt>
      <trkpt lat="44.85448" lon="5.52819">
        <ele>1561.45</ele>
        <time>2017-04-21T10:03:05Z</time>
      </trkpt>
      <trkpt lat="44.85458" lon="5.52842">
        <ele>1555.44</ele>
        <time>2017-04-21T10:04:01Z</time>
      </trkpt>
      <trkpt lat="44.85468" lon="5.52864">
        <ele>1546.18</ele>
        <time>2017-04-21T10:04:35Z</time>
      </trkpt>
      <trkpt lat="44.85478" lon="5.52886">
        <ele>1539.5</ele>
        <time>2017-04-21T10:04:55Z</time>
      </trkpt>
      <trkpt lat="44.85486" lon="5.52911">
        <ele>1537.83</ele>
        <time>2017-04-21T10:05:13Z</time>
      </trkpt>
      <trkpt lat="44.85489" lon="5.52937">
        <ele>1535.27</ele>
        <time>2017-04-21T10:05:31Z</time>
      </trkpt>
      <trkpt lat="44.85502" lon="5.52955">
        <ele>1531.94</ele>
        <time>2017-04-21T10:05:49Z</time>
      </trkpt>
      <trkpt lat="44.85518" lon="5.52971">
        <ele>1525.61</ele>
        <time>2017-04-21T10:06:09Z</time>
      </trkpt>
      <trkpt lat="44.85532" lon="5.5299">
        <ele>1525.4</ele>
        <time>2017-04-21T10:06:27Z</time>
      </trkpt>
      <trkpt lat="44.85521" lon="5.53012">
        <ele>1514.67</ele>
        <time>2017-04-21T10:07:01Z</time>
      </trkpt>
      <trkpt lat="44.85522" lon="5.5304">
        <ele>1515.63</ele>
        <time>2017-04-21T10:07:21Z</time>
      </trkpt>
      <trkpt lat="44.85531" lon="5.53063">
        <ele>1511.24</ele>
        <time>2017-04-21T10:07:41Z</time>
      </trkpt>
      <trkpt lat="44.85544" lon="5.53082">
        <ele>1507.42</ele>
        <time>2017-04-21T10:08:01Z</time>
      </trkpt>
      <trkpt lat="44.85561" lon="5.53092">
        <ele>1507.08</ele>
        <time>2017-04-21T10:08:25Z</time>
      </trkpt>
      <trkpt lat="44.85572" lon="5.53113">
        <ele>1503.39</ele>
        <time>2017-04-21T10:08:41Z</time>
      </trkpt>
      <trkpt lat="44.85583" lon="5.53134">
        <ele>1496.22</ele>
        <time>2017-04-21T10:08:59Z</time>
      </trkpt>
      <trkpt lat="44.85598" lon="5.5315">
        <ele>1493.01</ele>
        <time>2017-04-21T10:09:23Z</time>
      </trkpt>
      <trkpt lat="44.85615" lon="5.53167">
        <ele>1489.23</ele>
        <time>2017-04-21T10:09:39Z</time>
      </trkpt>
      <trkpt lat="44.85624" lon="5.53189">
        <ele>1489.46</ele>
        <time>2017-04-21T10:09:51Z</time>
      </trkpt>
      <trkpt lat="44.85632" lon="5.53214">
        <ele>1483.74</ele>
        <time>2017-04-21T10:10:05Z</time>
      </trkpt>
      <trkpt lat="44.85639" lon="5.5324">
        <ele>1477.92</ele>
        <time>2017-04-21T10:10:23Z</time>
      </trkpt>
      <trkpt lat="44.85649" lon="5.53263">
        <ele>1475.4</ele>
        <time>2017-04-21T10:10:45Z</time>
      </trkpt>
      <trkpt lat="44.85665" lon="5.53279">
        <ele>1472.49</ele>
        <time>2017-04-21T10:11:03Z</time>
      </trkpt>
      <trkpt lat="44.85677" lon="5.53297">
        <ele>1462.91</ele>
        <time>2017-04-21T10:11:23Z</time>
      </trkpt>
      <trkpt lat="44.85691" lon="5.53313">
        <ele>1454.85</ele>
        <time>2017-04-21T10:11:43Z</time>
      </trkpt>
      <trkpt lat="44.85703" lon="5.53334">
        <ele>1451.84</ele>
        <time>2017-04-21T10:12:01Z</time>
      </trkpt>
      <trkpt lat="44.85712" lon="5.53358">
        <ele>1450.04</ele>
        <time>2017-04-21T10:12:17Z</time>
      </trkpt>
      <trkpt lat="44.8573" lon="5.53373">
        <ele>1452.31</ele>
        <time>2017-04-21T10:12:33Z</time>
      </trkpt>
      <trkpt lat="44.85743" lon="5.53391">
        <ele>1450.17</ele>
        <time>2017-04-21T10:12:51Z</time>
      </trkpt>
      <trkpt lat="44.85752" lon="5.53416">
        <ele>1447.02</ele>
        <time>2017-04-21T10:13:07Z</time>
      </trkpt>
      <trkpt lat="44.85756" lon="5.53444">
        <ele>1441.81</ele>
        <time>2017-04-21T10:13:23Z</time>
      </trkpt>
      <trkpt lat="44.85762" lon="5.53472">
        <ele>1442.26</ele>
        <time>2017-04-21T10:13:35Z</time>
      </trkpt>
      <trkpt lat="44.85769" lon="5.53496">
        <ele>1427.99</ele>
        <time>2017-04-21T10:13:57Z</time>
      </trkpt>
      <trkpt lat="44.85774" lon="5.53523">
        <ele>1422.19</ele>
        <time>2017-04-21T10:14:15Z</time>
      </trkpt>
      <trkpt lat="44.8578" lon="5.53548">
        <ele>1416.08</ele>
        <time>2017-04-21T10:14:37Z</time>
      </trkpt>
      <trkpt lat="44.85778" lon="5.53576">
        <ele>1405.3</ele>
        <time>2017-04-21T10:14:59Z</time>
      </trkpt>
      <trkpt lat="44.85775" lon="5.53604">
        <ele>1396.88</ele>
        <time>2017-04-21T10:15:17Z</time>
      </trkpt>
      <trkpt lat="44.85773" lon="5.53631">
        <ele>1396.34</ele>
        <time>2017-04-21T10:15:31Z</time>
      </trkpt>
      <trkpt lat="44.85758" lon="5.53647">
        <ele>1395.94</ele>
        <time>2017-04-21T10:15:59Z</time>
      </trkpt>
      <trkpt lat="44.8574" lon="5.53658">
        <ele>1388.25</ele>
        <time>2017-04-21T10:16:19Z</time>
      </trkpt>
      <trkpt lat="44.85745" lon="5.53684">
        <ele>1385.86</ele>
        <time>2017-04-21T10:16:37Z</time>
      </trkpt>
      <trkpt lat="44.85748" lon="5.53711">
        <ele>1381.24</ele>
        <time>2017-04-21T10:16:59Z</time>
      </trkpt>
      <trkpt lat="44.85732" lon="5.53725">
        <ele>1375.03</ele>
        <time>2017-04-21T10:17:21Z</time>
      </trkpt>
      <trkpt lat="44.8573" lon="5.53754">
        <ele>1376.42</ele>
        <time>2017-04-21T10:17:39Z</time>
      </trkpt>
      <trkpt lat="44.8573" lon="5.5378">
        <ele>1367.37</ele>
        <time>2017-04-21T10:18:03Z</time>
      </trkpt>
      <trkpt lat="44.85738" lon="5.53803">
        <ele>1362.3</ele>
        <time>2017-04-21T10:18:21Z</time>
      </trkpt>
      <trkpt lat="44.85718" lon="5.53804">
        <ele>1354.07</ele>
        <time>2017-04-21T10:18:41Z</time>
      </trkpt>
      <trkpt lat="44.85717" lon="5.53831">
        <ele>1359.74</ele>
        <time>2017-04-21T10:19:31Z</time>
      </trkpt>
      <trkpt lat="44.85733" lon="5.53849">
        <ele>1357.68</ele>
        <time>2017-04-21T10:19:49Z</time>
      </trkpt>
      <trkpt lat="44.85715" lon="5.53857">
        <ele>1355.57</ele>
        <time>2017-04-21T10:20:15Z</time>
      </trkpt>
      <trkpt lat="44.8572" lon="5.53882">
        <ele>1339.47</ele>
        <time>2017-04-21T10:21:01Z</time>
      </trkpt>
      <trkpt lat="44.85735" lon="5.53896">
        <ele>1339.16</ele>
        <time>2017-04-21T10:21:21Z</time>
      </trkpt>
      <trkpt lat="44.8574" lon="5.53926">
        <ele>1337.21</ele>
        <time>2017-04-21T10:21:35Z</time>
      </trkpt>
      <trkpt lat="44.8573" lon="5.53949">
        <ele>1319.96</ele>
        <time>2017-04-21T10:22:01Z</time>
      </trkpt>
      <trkpt lat="44.85712" lon="5.5396">
        <ele>1308.7</ele>
        <time>2017-04-21T10:22:17Z</time>
      </trkpt>
      <trkpt lat="44.857" lon="5.5398">
        <ele>1303.49</ele>
        <time>2017-04-21T10:22:33Z</time>
      </trkpt>
      <trkpt lat="44.85688" lon="5.54">
        <ele>1299.93</ele>
        <time>2017-04-21T10:22:51Z</time>
      </trkpt>
      <trkpt lat="44.85673" lon="5.54021">
        <ele>1289.7</ele>
        <time>2017-04-21T10:23:13Z</time>
      </trkpt>
      <trkpt lat="44.85659" lon="5.5404">
        <ele>1280.91</ele>
        <time>2017-04-21T10:23:31Z</time>
      </trkpt>
      <trkpt lat="44.85654" lon="5.54068">
        <ele>1281.09</ele>
        <time>2017-04-21T10:23:45Z</time>
      </trkpt>
      <trkpt lat="44.85648" lon="5.54092">
        <ele>1276.66</ele>
        <time>2017-04-21T10:23:59Z</time>
      </trkpt>
      <trkpt lat="44.85642" lon="5.54119">
        <ele>1279.3</ele>
        <time>2017-04-21T10:24:15Z</time>
      </trkpt>
      <trkpt lat="44.85633" lon="5.54142">
        <ele>1270.38</ele>
        <time>2017-04-21T10:24:37Z</time>
      </trkpt>
      <trkpt lat="44.85625" lon="5.54168">
        <ele>1258.34</ele>
        <time>2017-04-21T10:24:57Z</time>
      </trkpt>
      <trkpt lat="44.85614" lon="5.54191">
        <ele>1258.25</ele>
        <time>2017-04-21T10:25:13Z</time>
      </trkpt>
      <trkpt lat="44.85606" lon="5.54214">
        <ele>1260.05</ele>
        <time>2017-04-21T10:25:27Z</time>
      </trkpt>
      <trkpt lat="44.85602" lon="5.54243">
        <ele>1256.52</ele>
        <time>2017-04-21T10:25:43Z</time>
      </trkpt>
      <trkpt lat="44.85602" lon="5.54268">
        <ele>1250.3</ele>
        <time>2017-04-21T10:25:59Z</time>
      </trkpt>
      <trkpt lat="44.85602" lon="5.54295">
        <ele>1247.12</ele>
        <time>2017-04-21T10:26:15Z</time>
      </trkpt>
      <trkpt lat="44.85589" lon="5.54313">
        <ele>1249.22</ele>
        <time>2017-04-21T10:26:41Z</time>
      </trkpt>
      <trkpt lat="44.85571" lon="5.54322">
        <ele>1249.22</ele>
        <time>2017-04-21T10:27:03Z</time>
      </trkpt>
      <trkpt lat="44.85558" lon="5.54338">
        <ele>1251.25</ele>
        <time>2017-04-21T10:27:25Z</time>
      </trkpt>
      <trkpt lat="44.85542" lon="5.54352">
        <ele>1251.33</ele>
        <time>2017-04-21T10:27:49Z</time>
      </trkpt>
      <trkpt lat="44.85528" lon="5.54369">
        <ele>1246.77</ele>
        <time>2017-04-21T10:28:15Z</time>
      </trkpt>
      <trkpt lat="44.8552" lon="5.54393">
        <ele>1247.01</ele>
        <time>2017-04-21T10:28:29Z</time>
      </trkpt>
      <trkpt lat="44.85521" lon="5.54419">
        <ele>1244.74</ele>
        <time>2017-04-21T10:28:45Z</time>
      </trkpt>
      <trkpt lat="44.85526" lon="5.54446">
        <ele>1242.68</ele>
        <time>2017-04-21T10:29:01Z</time>
      </trkpt>
      <trkpt lat="44.85529" lon="5.54474">
        <ele>1242.73</ele>
        <time>2017-04-21T10:29:15Z</time>
      </trkpt>
      <trkpt lat="44.85531" lon="5.54502">
        <ele>1239.62</ele>
        <time>2017-04-21T10:29:29Z</time>
      </trkpt>
      <trkpt lat="44.85528" lon="5.5453">
        <ele>1235.53</ele>
        <time>2017-04-21T10:29:47Z</time>
      </trkpt>
      <trkpt lat="44.85532" lon="5.54556">
        <ele>1234.94</ele>
        <time>2017-04-21T10:30:01Z</time>
      </trkpt>
      <trkpt lat="44.85541" lon="5.54584">
        <ele>1235.13</ele>
        <time>2017-04-21T10:30:19Z</time>
      </trkpt>
      <trkpt lat="44.85549" lon="5.54609">
        <ele>1237.72</ele>
        <time>2017-04-21T10:30:41Z</time>
      </trkpt>
      <trkpt lat="44.85556" lon="5.54635">
        <ele>1237.25</ele>
        <time>2017-04-21T10:30:55Z</time>
      </trkpt>
      <trkpt lat="44.85554" lon="5.54661">
        <ele>1222.93</ele>
        <time>2017-04-21T10:31:15Z</time>
      </trkpt>
      <trkpt lat="44.85561" lon="5.54687">
        <ele>1217.91</ele>
        <time>2017-04-21T10:31:33Z</time>
      </trkpt>
      <trkpt lat="44.8557" lon="5.54712">
        <ele>1218.36</ele>
        <time>2017-04-21T10:31:47Z</time>
      </trkpt>
      <trkpt lat="44.85571" lon="5.54738">
        <ele>1222.6</ele>
        <time>2017-04-21T10:32:03Z</time>
      </trkpt>
      <trkpt lat="44.85577" lon="5.54765">
        <ele>1212.6</ele>
        <time>2017-04-21T10:32:21Z</time>
      </trkpt>
      <trkpt lat="44.85586" lon="5.54791">
        <ele>1210.4</ele>
        <time>2017-04-21T10:32:35Z</time>
      </trkpt>
      <trkpt lat="44.85588" lon="5.54819">
        <ele>1210.26</ele>
        <time>2017-04-21T10:32:49Z</time>
      </trkpt>
      <trkpt lat="44.85596" lon="5.54845">
        <ele>1205.22</ele>
        <time>2017-04-21T10:33:05Z</time>
      </trkpt>
      <trkpt lat="44.85602" lon="5.54869">
        <ele>1203.22</ele>
        <time>2017-04-21T10:33:17Z</time>
      </trkpt>
      <trkpt lat="44.85608" lon="5.54894">
        <ele>1206.13</ele>
        <time>2017-04-21T10:33:29Z</time>
      </trkpt>
      <trkpt lat="44.85607" lon="5.54922">
        <ele>1206.38</ele>
        <time>2017-04-21T10:33:41Z</time>
      </trkpt>
      <trkpt lat="44.85609" lon="5.5495">
        <ele>1204.77</ele>
        <time>2017-04-21T10:33:55Z</time>
      </trkpt>
      <trkpt lat="44.85611" lon="5.54978">
        <ele>1205.11</ele>
        <time>2017-04-21T10:34:07Z</time>
      </trkpt>
      <trkpt lat="44.8561" lon="5.55003">
        <ele>1201.57</ele>
        <time>2017-04-21T10:34:21Z</time>
      </trkpt>
      <trkpt lat="44.8561" lon="5.55031">
        <ele>1205.15</ele>
        <time>2017-04-21T10:34:33Z</time>
      </trkpt>
      <trkpt lat="44.85613" lon="5.55056">
        <ele>1201.36</ele>
        <time>2017-04-21T10:34:49Z</time>
      </trkpt>
      <trkpt lat="44.85614" lon="5.55083">
        <ele>1205.93</ele>
        <time>2017-04-21T10:35:01Z</time>
      </trkpt>
      <trkpt lat="44.85617" lon="5.5511">
        <ele>1205.22</ele>
        <time>2017-04-21T10:35:13Z</time>
      </trkpt>
      <trkpt lat="44.85619" lon="5.55137">
        <ele>1196.5</ele>
        <time>2017-04-21T10:35:31Z</time>
      </trkpt>
      <trkpt lat="44.85616" lon="5.55164">
        <ele>1194.31</ele>
        <time>2017-04-21T10:35:43Z</time>
      </trkpt>
      <trkpt lat="44.85615" lon="5.55194">
        <ele>1198.71</ele>
        <time>2017-04-21T10:35:55Z</time>
      </trkpt>
      <trkpt lat="44.85617" lon="5.5522">
        <ele>1205.63</ele>
        <time>2017-04-21T10:36:05Z</time>
      </trkpt>
      <trkpt lat="44.8562" lon="5.55246">
        <ele>1198.29</ele>
        <time>2017-04-21T10:36:19Z</time>
      </trkpt>
      <trkpt lat="44.8563" lon="5.5527">
        <ele>1195.19</ele>
        <time>2017-04-21T10:36:31Z</time>
      </trkpt>
      <trkpt lat="44.85638" lon="5.55296">
        <ele>1192.38</ele>
        <time>2017-04-21T10:36:43Z</time>
      </trkpt>
      <trkpt lat="44.85642" lon="5.55323">
        <ele>1184.45</ele>
        <time>2017-04-21T10:36:59Z</time>
      </trkpt>
      <trkpt lat="44.85659" lon="5.55339">
        <ele>1179.99</ele>
        <time>2017-04-21T10:37:13Z</time>
      </trkpt>
      <trkpt lat="44.8567" lon="5.55359">
        <ele>1179.78</ele>
        <time>2017-04-21T10:37:27Z</time>
      </trkpt>
      <trkpt lat="44.8568" lon="5.55384">
        <ele>1172.71</ele>
        <time>2017-04-21T10:37:43Z</time>
      </trkpt>
      <trkpt lat="44.85692" lon="5.55403">
        <ele>1168.05</ele>
        <time>2017-04-21T10:37:57Z</time>
      </trkpt>
      <trkpt lat="44.85706" lon="5.55419">
        <ele>1164.55</ele>
        <time>2017-04-21T10:38:33Z</time>
      </trkpt>
      <trkpt lat="44.85719" lon="5.55438">
        <ele>1159.49</ele>
        <time>2017-04-21T10:38:49Z</time>
      </trkpt>
      <trkpt lat="44.8573" lon="5.55459">
        <ele>1148.76</ele>
        <time>2017-04-21T10:39:03Z</time>
      </trkpt>
      <trkpt lat="44.85735" lon="5.55484">
        <ele>1146.32</ele>
        <time>2017-04-21T10:39:19Z</time>
      </trkpt>
      <trkpt lat="44.85737" lon="5.55509">
        <ele>1145.12</ele>
        <time>2017-04-21T10:39:31Z</time>
      </trkpt>
      <trkpt lat="44.85742" lon="5.55539">
        <ele>1147.6</ele>
        <time>2017-04-21T10:39:43Z</time>
      </trkpt>
      <trkpt lat="44.8575" lon="5.55565">
        <ele>1149.01</ele>
        <time>2017-04-21T10:39:55Z</time>
      </trkpt>
      <trkpt lat="44.85756" lon="5.55589">
        <ele>1144.62</ele>
        <time>2017-04-21T10:40:09Z</time>
      </trkpt>
      <trkpt lat="44.85763" lon="5.55613">
        <ele>1142.74</ele>
        <time>2017-04-21T10:40:23Z</time>
      </trkpt>
      <trkpt lat="44.85773" lon="5.55636">
        <ele>1137.22</ele>
        <time>2017-04-21T10:40:37Z</time>
      </trkpt>
      <trkpt lat="44.85783" lon="5.55657">
        <ele>1131.72</ele>
        <time>2017-04-21T10:40:53Z</time>
      </trkpt>
      <trkpt lat="44.85792" lon="5.55683">
        <ele>1132.37</ele>
        <time>2017-04-21T10:41:05Z</time>
      </trkpt>
      <trkpt lat="44.85796" lon="5.55708">
        <ele>1128.91</ele>
        <time>2017-04-21T10:41:17Z</time>
      </trkpt>
      <trkpt lat="44.85799" lon="5.55737">
        <ele>1132.04</ele>
        <time>2017-04-21T10:41:31Z</time>
      </trkpt>
      <trkpt lat="44.85801" lon="5.55763">
        <ele>1131.99</ele>
        <time>2017-04-21T10:42:11Z</time>
      </trkpt>
    </trkseg>
  </trk>
</gpx>